KDKB

De Kalb Taylor Municipal Airport

De Kalb, Illinois, USA
METAR KDKB 191655Z AUTO 12004KT 10SM BKN031 27/20 A3003 RMK AO2 T02690197
Observed Flight Rules
Aug-19 @ 16:55 UTC (17 minutes ago) Visual Flight Rules
Wind Visibility Clouds
120° at 4 knots 10 miles
  • Broken at 3,100' AGL
Temperatures Readings
Current 27°C / 81°F
Dewpoint 20°C / 68°F
Humidity 66%
Altimeter 30.03" Hg
Pressure 1017 hPa
Elevation 279
METAR KDKB 191655Z AUTO 12004KT 10SM BKN031 27/20 A3003 RMK AO2 T02690197
Observed Flight Rules
Aug-19 @ 16:55 UTC
(17 minutes ago)
VFR
Wind Visibility
120° at 4 knots 10 miles
Clouds
  • Broken at 3,100' AGL
Temperature Dewpoint
27°C / 81°F 20°C / 68°F
Humidity Altimeter Pressure
66% 30.03" Hg 1017 hPa